createdAt,value
2022-10-13T00:03:03.218Z,7.60
2022-10-13T00:08:05.214Z,7.60
2022-10-13T00:13:10.137Z,7.60
2022-10-13T00:18:12.332Z,7.60
2022-10-13T00:23:14.386Z,7.60
2022-10-13T00:28:18.869Z,7.60
2022-10-13T00:33:20.666Z,7.60
2022-10-13T00:38:23.380Z,7.70
2022-10-13T00:43:57.238Z,7.70
2022-10-13T00:49:06.560Z,7.80
2022-10-13T00:54:09.841Z,7.80
2022-10-13T00:59:24.838Z,7.80
2022-10-13T01:04:33.231Z,7.80
2022-10-13T01:09:37.813Z,7.80
2022-10-13T01:14:55.117Z,7.80
2022-10-13T01:20:21.847Z,7.80
2022-10-13T01:25:48.501Z,7.80
2022-10-13T01:30:58.269Z,7.70
2022-10-13T01:36:04.453Z,7.70
2022-10-13T01:41:17.526Z,7.70
2022-10-13T01:46:23.929Z,7.70
2022-10-13T01:51:29.232Z,7.50
2022-10-13T01:56:31.549Z,7.50
2022-10-13T02:01:52.375Z,7.40
2022-10-13T02:07:20.653Z,7.50
2022-10-13T02:12:50.753Z,7.50
2022-10-13T02:17:53.297Z,7.60
2022-10-13T02:22:59.731Z,7.70
2022-10-13T02:28:02.323Z,7.70
2022-10-13T02:33:08.005Z,7.70
2022-10-13T02:38:10.698Z,7.60
2022-10-13T02:43:12.599Z,7.60
2022-10-13T02:48:14.332Z,7.50
2022-10-13T02:53:16.478Z,7.50
2022-10-13T02:58:18.224Z,7.40
2022-10-13T03:03:19.945Z,7.40
2022-10-13T03:08:24.797Z,7.40
2022-10-13T03:13:27.313Z,7.40
2022-10-13T03:18:30.080Z,7.30
2022-10-13T03:23:32.858Z,7.30
2022-10-13T03:28:34.731Z,7.30
2022-10-13T03:33:36.666Z,7.20
2022-10-13T03:38:38.364Z,7.20
2022-10-13T03:43:41.198Z,7.20
2022-10-13T03:48:43.465Z,7.20
2022-10-13T03:53:46.467Z,7.20
2022-10-13T03:58:53.483Z,7.10
2022-10-13T04:03:55.833Z,7.10
2022-10-13T04:08:57.780Z,7.20
2022-10-13T04:13:59.635Z,7.30
2022-10-13T04:19:04.343Z,7.40
2022-10-13T04:24:06.623Z,7.40
2022-10-13T04:29:10.526Z,7.50
2022-10-13T04:34:12.336Z,7.50
2022-10-13T04:39:15.365Z,7.50
2022-10-13T04:44:17.170Z,7.50
2022-10-13T04:49:18.890Z,7.50
2022-10-13T04:54:20.600Z,7.50
2022-10-13T04:59:22.326Z,7.60
2022-10-13T05:04:24.049Z,7.60
2022-10-13T05:09:25.983Z,7.60
2022-10-13T05:14:27.896Z,7.60
2022-10-13T05:19:29.778Z,7.60
2022-10-13T05:24:39.225Z,7.60
2022-10-13T05:29:41.317Z,7.60
2022-10-13T05:34:43.104Z,7.60
2022-10-13T05:39:48.804Z,7.70
2022-10-13T05:44:51.510Z,7.70
2022-10-13T05:49:53.222Z,7.90
2022-10-13T05:54:59.652Z,7.80
2022-10-13T06:00:03.202Z,7.90
2022-10-13T06:05:26.488Z,8.00
2022-10-13T06:10:29.958Z,8.10
2022-10-13T06:15:31.684Z,8.10
2022-10-13T06:20:33.924Z,8.10
2022-10-13T06:25:36.423Z,8.00
2022-10-13T06:30:38.499Z,8.00
2022-10-13T06:35:40.551Z,8.00
2022-10-13T06:40:47.012Z,8.00
2022-10-13T06:45:48.708Z,8.00
2022-10-13T06:50:51.826Z,8.00
2022-10-13T06:55:59.685Z,8.10
2022-10-13T07:01:01.580Z,8.10
2022-10-13T07:06:07.741Z,8.10
2022-10-13T07:11:15.859Z,8.20
2022-10-13T07:16:22.391Z,8.40
2022-10-13T07:21:24.120Z,8.50
2022-10-13T07:26:25.843Z,8.60
2022-10-13T07:31:28.004Z,8.70
2022-10-13T07:36:31.198Z,8.90
2022-10-13T07:41:32.953Z,8.90
2022-10-13T07:46:34.685Z,9.10
2022-10-13T07:51:36.473Z,9.20
2022-10-13T07:56:40.731Z,9.30
2022-10-13T08:01:44.962Z,9.60
2022-10-13T08:06:47.003Z,10.00
2022-10-13T08:11:48.912Z,10.30
2022-10-13T08:16:52.966Z,10.50
2022-10-13T08:21:58.882Z,10.80
2022-10-13T08:27:01.588Z,11.10
2022-10-13T08:32:03.404Z,11.20
2022-10-13T08:37:05.796Z,11.30
2022-10-13T08:42:20.604Z,11.50
2022-10-13T08:47:26.832Z,11.70
2022-10-13T08:52:52.777Z,12.00
2022-10-13T08:57:54.590Z,12.20
2022-10-13T09:03:19.537Z,12.50
2022-10-13T09:08:22.291Z,12.70
2022-10-13T09:13:25.458Z,12.90
2022-10-13T09:18:31.891Z,13.20
2022-10-13T09:23:39.465Z,13.40
2022-10-13T09:28:43.865Z,13.60
2022-10-13T09:33:46.497Z,13.70
2022-10-13T09:39:06.858Z,13.90
2022-10-13T09:44:38.138Z,14.00
2022-10-13T09:49:43.364Z,14.10
2022-10-13T09:54:51.125Z,14.20
2022-10-13T10:00:04.282Z,14.40
2022-10-13T10:05:35.965Z,14.60
2022-10-13T10:10:40.905Z,14.70
2022-10-13T10:16:12.331Z,14.80
2022-10-13T10:21:25.701Z,15.00
2022-10-13T10:26:42.497Z,15.10
2022-10-13T10:31:55.617Z,15.20
2022-10-13T10:37:22.817Z,15.30
2022-10-13T10:43:11.616Z,15.40
2022-10-13T10:48:18.746Z,15.40
2022-10-13T10:53:49.378Z,15.50
2022-10-13T10:59:08.927Z,15.80
2022-10-13T11:04:29.341Z,15.90
2022-10-13T11:09:56.787Z,16.00
2022-10-13T11:15:08.942Z,16.20
2022-10-13T11:20:24.983Z,16.20
2022-10-13T11:25:41.890Z,16.20
2022-10-13T11:30:47.707Z,16.30
2022-10-13T11:35:49.874Z,16.50
2022-10-13T11:41:09.934Z,16.60
2022-10-13T11:46:25.604Z,16.70
2022-10-13T11:51:49.301Z,16.70
2022-10-13T11:56:56.094Z,16.70
2022-10-13T12:02:10.053Z,16.70
2022-10-13T12:07:14.772Z,16.90
2022-10-13T12:12:19.399Z,17.20
2022-10-13T12:17:31.688Z,17.30
2022-10-13T12:22:36.807Z,17.30
2022-10-13T12:27:48.328Z,17.50
2022-10-13T12:32:52.885Z,17.60
2022-10-13T12:37:56.263Z,17.60
2022-10-13T12:42:58.597Z,17.60
2022-10-13T12:48:00.433Z,17.70
2022-10-13T12:53:08.217Z,17.70
2022-10-13T12:58:21.530Z,17.70
2022-10-13T13:03:27.432Z,17.70
2022-10-13T13:08:31.797Z,17.90
2022-10-13T13:13:36.239Z,17.70
2022-10-13T13:18:44.529Z,17.50
2022-10-13T13:23:52.773Z,17.40
2022-10-13T13:28:56.970Z,17.40
2022-10-13T13:34:00.705Z,17.20
2022-10-13T13:39:02.432Z,17.20
2022-10-13T13:44:04.256Z,17.30
2022-10-13T13:49:06.441Z,17.40
2022-10-13T13:54:08.189Z,17.30
2022-10-13T13:59:09.919Z,17.40
2022-10-13T14:04:11.695Z,17.40
2022-10-13T14:09:13.427Z,17.70
2022-10-13T14:14:15.233Z,18.20
2022-10-13T14:19:17.140Z,18.30
2022-10-13T14:24:19.519Z,18.40
2022-10-13T14:29:21.337Z,18.20
2022-10-13T14:34:23.496Z,18.00
2022-10-13T14:39:25.368Z,17.70
2022-10-13T14:44:27.220Z,17.50
2022-10-13T14:49:29.000Z,17.40
2022-10-13T14:54:30.853Z,17.50
2022-10-13T14:59:32.667Z,17.60
2022-10-13T15:04:34.422Z,17.50
2022-10-13T15:09:52.055Z,17.30
2022-10-13T15:14:55.220Z,17.30
2022-10-13T15:19:56.917Z,17.10
2022-10-13T15:24:58.722Z,16.90
2022-10-13T15:30:04.711Z,16.80
2022-10-13T15:35:06.770Z,16.60
2022-10-13T15:40:09.678Z,16.40
2022-10-13T15:45:11.953Z,16.30
2022-10-13T15:50:15.071Z,16.10
2022-10-13T15:55:16.905Z,15.90
2022-10-13T16:00:20.700Z,15.80
2022-10-13T16:05:22.472Z,15.70
2022-10-13T16:10:24.489Z,15.60
2022-10-13T16:15:26.389Z,15.50
2022-10-13T16:20:34.094Z,15.50
2022-10-13T16:25:39.226Z,15.40
2022-10-13T16:30:41.658Z,15.30
2022-10-13T16:35:43.484Z,15.20
2022-10-13T16:40:45.204Z,15.10
2022-10-13T16:46:00.204Z,14.90
2022-10-13T16:51:12.133Z,14.80
2022-10-13T16:56:14.335Z,14.70
2022-10-13T17:01:16.251Z,14.60
2022-10-13T17:06:20.321Z,14.50
2022-10-13T17:11:30.765Z,14.40
2022-10-13T17:16:33.158Z,14.30
2022-10-13T17:21:34.982Z,14.20
2022-10-13T17:26:36.748Z,14.10
2022-10-13T17:31:38.540Z,14.00
2022-10-13T17:36:40.352Z,13.90
2022-10-13T17:41:45.025Z,13.80
2022-10-13T17:46:48.897Z,13.60
2022-10-13T17:51:52.681Z,13.50
2022-10-13T17:56:56.934Z,13.40
2022-10-13T18:01:58.683Z,13.30
2022-10-13T18:07:00.453Z,13.20
2022-10-13T18:12:02.204Z,13.00
2022-10-13T18:17:03.938Z,12.90
2022-10-13T18:22:05.941Z,12.80
2022-10-13T18:27:07.682Z,12.70
2022-10-13T18:32:10.533Z,12.70
2022-10-13T18:37:12.364Z,12.60
2022-10-13T18:42:14.122Z,12.60
2022-10-13T18:47:15.832Z,12.50
2022-10-13T18:52:17.853Z,12.40
2022-10-13T18:57:19.831Z,12.30
2022-10-13T19:02:23.087Z,12.20
2022-10-13T19:07:24.840Z,12.20
2022-10-13T19:12:27.609Z,12.10
2022-10-13T19:17:29.497Z,12.10
2022-10-13T19:22:31.864Z,12.00
2022-10-13T19:27:33.660Z,11.90
2022-10-13T19:32:37.941Z,11.80
2022-10-13T19:37:39.982Z,11.80
2022-10-13T19:42:41.747Z,11.70
2022-10-13T19:47:43.450Z,11.70
2022-10-13T19:52:45.478Z,11.60
2022-10-13T19:57:47.194Z,11.60
2022-10-13T20:02:48.995Z,11.60
2022-10-13T20:07:50.764Z,11.50
2022-10-13T20:12:52.616Z,11.50
2022-10-13T20:17:54.505Z,11.40
2022-10-13T20:22:56.346Z,11.40
2022-10-13T20:27:58.339Z,11.40
2022-10-13T20:33:00.586Z,11.40
2022-10-13T20:38:02.350Z,11.30
2022-10-13T20:43:04.080Z,11.20
2022-10-13T20:48:05.916Z,11.10
2022-10-13T20:53:08.639Z,11.00
2022-10-13T20:58:10.411Z,11.00
2022-10-13T21:03:12.494Z,10.90
2022-10-13T21:08:14.886Z,10.90
2022-10-13T21:13:17.055Z,10.90
2022-10-13T21:18:20.150Z,10.80
2022-10-13T21:23:22.973Z,10.80
2022-10-13T21:28:24.869Z,10.70
2022-10-13T21:33:27.985Z,10.70
2022-10-13T21:38:32.829Z,10.60
2022-10-13T21:43:34.815Z,10.50
2022-10-13T21:48:37.083Z,10.50
2022-10-13T21:53:40.422Z,10.40
2022-10-13T21:58:42.405Z,10.40
2022-10-13T22:03:44.605Z,10.40
2022-10-13T22:08:48.967Z,10.30
2022-10-13T22:13:57.384Z,10.30
2022-10-13T22:18:59.336Z,10.30
2022-10-13T22:24:03.823Z,10.30
2022-10-13T22:29:06.728Z,10.30
2022-10-13T22:34:08.625Z,10.20
2022-10-13T22:39:10.652Z,10.30
2022-10-13T22:44:13.505Z,10.20
2022-10-13T22:49:15.312Z,10.20
2022-10-13T22:54:17.020Z,10.10
2022-10-13T22:59:18.771Z,10.10
2022-10-13T23:04:20.494Z,10.10
2022-10-13T23:09:22.214Z,10.00
2022-10-13T23:14:23.943Z,9.90
2022-10-13T23:19:25.664Z,9.90
2022-10-13T23:24:27.685Z,9.90
2022-10-13T23:29:29.383Z,9.80
2022-10-13T23:34:31.094Z,9.80
2022-10-13T23:39:32.817Z,9.80
2022-10-13T23:44:34.530Z,9.80
2022-10-13T23:49:36.238Z,9.70
2022-10-13T23:54:37.968Z,9.70
2022-10-13T23:59:39.652Z,9.60
